sensor_id;sensor_type;location;lat;lon;timestamp;P1;durP1;ratioP1;P2;durP2;ratioP2
40515;SDS011;26216;53.724;9.898;2023-09-18T00:00:50;2.83;;;2.53;;
40515;SDS011;26216;53.724;9.898;2023-09-18T00:03:17;3.15;;;2.85;;
40515;SDS011;26216;53.724;9.898;2023-09-18T00:05:46;3.60;;;3.30;;
40515;SDS011;26216;53.724;9.898;2023-09-18T00:08:15;3.55;;;3.15;;
40515;SDS011;26216;53.724;9.898;2023-09-18T00:10:42;3.28;;;2.92;;
40515;SDS011;26216;53.724;9.898;2023-09-18T00:13:11;4.50;;;2.92;;
40515;SDS011;26216;53.724;9.898;2023-09-18T00:15:37;3.50;;;3.03;;
40515;SDS011;26216;53.724;9.898;2023-09-18T00:18:03;3.40;;;3.10;;
40515;SDS011;26216;53.724;9.898;2023-09-18T00:20:30;3.53;;;3.22;;
40515;SDS011;26216;53.724;9.898;2023-09-18T00:22:56;3.50;;;3.08;;
40515;SDS011;26216;53.724;9.898;2023-09-18T00:25:22;3.35;;;2.88;;
40515;SDS011;26216;53.724;9.898;2023-09-18T00:27:48;3.50;;;3.20;;
40515;SDS011;26216;53.724;9.898;2023-09-18T00:30:14;3.65;;;3.25;;
40515;SDS011;26216;53.724;9.898;2023-09-18T00:32:40;3.88;;;3.47;;
40515;SDS011;26216;53.724;9.898;2023-09-18T00:35:06;3.75;;;3.38;;
40515;SDS011;26216;53.724;9.898;2023-09-18T00:37:32;3.72;;;3.33;;
40515;SDS011;26216;53.724;9.898;2023-09-18T00:39:58;3.05;;;2.75;;
40515;SDS011;26216;53.724;9.898;2023-09-18T00:42:24;3.50;;;3.15;;
40515;SDS011;26216;53.724;9.898;2023-09-18T00:44:50;3.65;;;3.20;;
40515;SDS011;26216;53.724;9.898;2023-09-18T00:47:16;4.07;;;3.25;;
40515;SDS011;26216;53.724;9.898;2023-09-18T00:49:43;3.35;;;3.03;;
40515;SDS011;26216;53.724;9.898;2023-09-18T00:52:13;3.35;;;2.90;;
40515;SDS011;26216;53.724;9.898;2023-09-18T00:54:39;3.22;;;2.92;;
40515;SDS011;26216;53.724;9.898;2023-09-18T00:57:06;3.90;;;3.50;;
40515;SDS011;26216;53.724;9.898;2023-09-18T00:59:33;3.65;;;3.35;;
40515;SDS011;26216;53.724;9.898;2023-09-18T01:01:59;4.13;;;3.28;;
40515;SDS011;26216;53.724;9.898;2023-09-18T01:04:25;4.30;;;3.42;;
40515;SDS011;26216;53.724;9.898;2023-09-18T01:06:53;3.17;;;2.88;;
40515;SDS011;26216;53.724;9.898;2023-09-18T01:09:21;3.60;;;3.20;;
40515;SDS011;26216;53.724;9.898;2023-09-18T01:17:09;4.03;;;2.93;;
40515;SDS011;26216;53.724;9.898;2023-09-18T01:19:39;4.72;;;3.38;;
40515;SDS011;26216;53.724;9.898;2023-09-18T01:22:07;4.05;;;3.00;;
40515;SDS011;26216;53.724;9.898;2023-09-18T01:24:34;3.50;;;3.20;;
40515;SDS011;26216;53.724;9.898;2023-09-18T01:27:02;3.42;;;3.00;;
40515;SDS011;26216;53.724;9.898;2023-09-18T01:29:31;3.83;;;3.25;;
40515;SDS011;26216;53.724;9.898;2023-09-18T01:31:57;4.18;;;3.55;;
40515;SDS011;26216;53.724;9.898;2023-09-18T01:34:28;3.80;;;3.47;;
40515;SDS011;26216;53.724;9.898;2023-09-18T01:36:58;3.65;;;3.30;;
40515;SDS011;26216;53.724;9.898;2023-09-18T01:39:25;3.38;;;2.85;;
40515;SDS011;26216;53.724;9.898;2023-09-18T01:41:57;4.03;;;3.05;;
40515;SDS011;26216;53.724;9.898;2023-09-18T01:44:28;4.28;;;3.85;;
40515;SDS011;26216;53.724;9.898;2023-09-18T01:46:56;3.25;;;2.95;;
40515;SDS011;26216;53.724;9.898;2023-09-18T01:49:28;3.50;;;3.20;;
40515;SDS011;26216;53.724;9.898;2023-09-18T01:51:57;3.83;;;3.35;;
40515;SDS011;26216;53.724;9.898;2023-09-18T01:54:24;3.83;;;3.42;;
40515;SDS011;26216;53.724;9.898;2023-09-18T01:56:50;4.28;;;3.35;;
40515;SDS011;26216;53.724;9.898;2023-09-18T01:59:17;3.92;;;3.42;;
40515;SDS011;26216;53.724;9.898;2023-09-18T02:01:43;3.90;;;3.25;;
40515;SDS011;26216;53.724;9.898;2023-09-18T02:04:09;3.35;;;3.05;;
40515;SDS011;26216;53.724;9.898;2023-09-18T02:06:35;3.90;;;3.30;;
40515;SDS011;26216;53.724;9.898;2023-09-18T02:09:01;3.50;;;3.20;;
40515;SDS011;26216;53.724;9.898;2023-09-18T02:11:28;3.85;;;3.40;;
40515;SDS011;26216;53.724;9.898;2023-09-18T02:13:54;3.58;;;3.28;;
40515;SDS011;26216;53.724;9.898;2023-09-18T02:16:21;4.32;;;3.40;;
40515;SDS011;26216;53.724;9.898;2023-09-18T02:18:47;3.80;;;2.95;;
40515;SDS011;26216;53.724;9.898;2023-09-18T02:21:19;3.60;;;3.13;;
40515;SDS011;26216;53.724;9.898;2023-09-18T02:23:48;3.65;;;3.13;;
40515;SDS011;26216;53.724;9.898;2023-09-18T02:26:18;3.47;;;3.05;;
40515;SDS011;26216;53.724;9.898;2023-09-18T02:28:44;3.50;;;3.20;;
40515;SDS011;26216;53.724;9.898;2023-09-18T02:31:11;3.92;;;3.45;;
40515;SDS011;26216;53.724;9.898;2023-09-18T02:33:40;3.40;;;3.10;;
40515;SDS011;26216;53.724;9.898;2023-09-18T02:36:06;3.90;;;3.50;;
40515;SDS011;26216;53.724;9.898;2023-09-18T02:38:32;4.40;;;3.65;;
40515;SDS011;26216;53.724;9.898;2023-09-18T02:40:59;3.55;;;3.20;;
40515;SDS011;26216;53.724;9.898;2023-09-18T02:43:25;3.88;;;3.17;;
40515;SDS011;26216;53.724;9.898;2023-09-18T02:45:51;3.95;;;3.33;;
40515;SDS011;26216;53.724;9.898;2023-09-18T02:48:18;3.90;;;3.22;;
40515;SDS011;26216;53.724;9.898;2023-09-18T02:50:44;4.13;;;3.22;;
40515;SDS011;26216;53.724;9.898;2023-09-18T02:53:20;3.50;;;3.20;;
40515;SDS011;26216;53.724;9.898;2023-09-18T02:55:49;3.95;;;3.45;;
40515;SDS011;26216;53.724;9.898;2023-09-18T02:58:16;3.95;;;3.42;;
40515;SDS011;26216;53.724;9.898;2023-09-18T03:00:44;3.70;;;3.22;;
40515;SDS011;26216;53.724;9.898;2023-09-18T03:03:12;4.00;;;3.40;;
40515;SDS011;26216;53.724;9.898;2023-09-18T03:05:38;4.22;;;3.83;;
40515;SDS011;26216;53.724;9.898;2023-09-18T03:08:05;3.80;;;3.20;;
40515;SDS011;26216;53.724;9.898;2023-09-18T03:10:32;3.55;;;3.25;;
40515;SDS011;26216;53.724;9.898;2023-09-18T03:12:59;3.85;;;3.50;;
40515;SDS011;26216;53.724;9.898;2023-09-18T03:15:26;4.53;;;3.25;;
40515;SDS011;26216;53.724;9.898;2023-09-18T03:17:52;3.85;;;2.97;;
40515;SDS011;26216;53.724;9.898;2023-09-18T03:20:18;3.63;;;3.22;;
40515;SDS011;26216;53.724;9.898;2023-09-18T03:22:43;3.63;;;3.30;;
40515;SDS011;26216;53.724;9.898;2023-09-18T03:25:09;3.80;;;3.17;;
40515;SDS011;26216;53.724;9.898;2023-09-18T03:27:35;4.00;;;3.60;;
40515;SDS011;26216;53.724;9.898;2023-09-18T03:30:01;3.65;;;3.30;;
40515;SDS011;26216;53.724;9.898;2023-09-18T03:32:27;3.60;;;3.30;;
40515;SDS011;26216;53.724;9.898;2023-09-18T03:34:53;3.80;;;3.40;;
40515;SDS011;26216;53.724;9.898;2023-09-18T03:37:19;3.70;;;3.35;;
40515;SDS011;26216;53.724;9.898;2023-09-18T03:39:45;4.13;;;3.72;;
40515;SDS011;26216;53.724;9.898;2023-09-18T03:42:10;4.10;;;3.70;;
40515;SDS011;26216;53.724;9.898;2023-09-18T03:44:36;3.40;;;3.10;;
40515;SDS011;26216;53.724;9.898;2023-09-18T03:47:02;3.63;;;3.15;;
40515;SDS011;26216;53.724;9.898;2023-09-18T03:49:28;3.63;;;3.33;;
40515;SDS011;26216;53.724;9.898;2023-09-18T03:51:55;3.30;;;2.95;;
40515;SDS011;26216;53.724;9.898;2023-09-18T03:54:20;4.22;;;3.67;;
40515;SDS011;26216;53.724;9.898;2023-09-18T03:56:46;4.30;;;3.67;;
40515;SDS011;26216;53.724;9.898;2023-09-18T03:59:12;4.43;;;3.53;;
40515;SDS011;26216;53.724;9.898;2023-09-18T04:01:38;3.50;;;3.20;;
40515;SDS011;26216;53.724;9.898;2023-09-18T04:04:05;3.70;;;3.35;;
40515;SDS011;26216;53.724;9.898;2023-09-18T04:06:41;4.20;;;3.47;;
40515;SDS011;26216;53.724;9.898;2023-09-18T04:09:08;4.13;;;3.72;;
40515;SDS011;26216;53.724;9.898;2023-09-18T04:11:34;4.07;;;3.67;;
40515;SDS011;26216;53.724;9.898;2023-09-18T04:14:01;3.65;;;3.33;;
40515;SDS011;26216;53.724;9.898;2023-09-18T04:16:28;4.38;;;3.60;;
40515;SDS011;26216;53.724;9.898;2023-09-18T04:19:01;4.50;;;3.47;;
40515;SDS011;26216;53.724;9.898;2023-09-18T04:21:27;4.13;;;3.72;;
40515;SDS011;26216;53.724;9.898;2023-09-18T04:23:54;4.57;;;3.42;;
40515;SDS011;26216;53.724;9.898;2023-09-18T04:26:23;3.88;;;3.47;;
40515;SDS011;26216;53.724;9.898;2023-09-18T04:28:49;3.80;;;3.40;;
40515;SDS011;26216;53.724;9.898;2023-09-18T04:31:15;4.00;;;3.60;;
40515;SDS011;26216;53.724;9.898;2023-09-18T04:33:41;4.47;;;3.83;;
40515;SDS011;26216;53.724;9.898;2023-09-18T04:36:07;4.32;;;3.60;;
40515;SDS011;26216;53.724;9.898;2023-09-18T04:38:33;3.80;;;3.42;;
40515;SDS011;26216;53.724;9.898;2023-09-18T04:40:59;4.63;;;3.60;;
40515;SDS011;26216;53.724;9.898;2023-09-18T04:43:26;4.03;;;3.63;;
40515;SDS011;26216;53.724;9.898;2023-09-18T04:45:54;4.03;;;3.63;;
40515;SDS011;26216;53.724;9.898;2023-09-18T04:48:20;4.30;;;3.17;;
40515;SDS011;26216;53.724;9.898;2023-09-18T04:50:46;4.22;;;3.83;;
40515;SDS011;26216;53.724;9.898;2023-09-18T04:53:12;4.97;;;4.00;;
40515;SDS011;26216;53.724;9.898;2023-09-18T04:55:39;3.47;;;3.17;;
40515;SDS011;26216;53.724;9.898;2023-09-18T04:58:05;4.05;;;3.65;;
40515;SDS011;26216;53.724;9.898;2023-09-18T05:00:31;4.20;;;3.80;;
40515;SDS011;26216;53.724;9.898;2023-09-18T05:02:58;4.18;;;3.78;;
40515;SDS011;26216;53.724;9.898;2023-09-18T05:05:46;4.07;;;3.67;;
40515;SDS011;26216;53.724;9.898;2023-09-18T05:08:12;4.15;;;3.75;;
40515;SDS011;26216;53.724;9.898;2023-09-18T05:10:38;4.60;;;4.10;;
40515;SDS011;26216;53.724;9.898;2023-09-18T05:13:04;4.28;;;3.88;;
40515;SDS011;26216;53.724;9.898;2023-09-18T05:15:30;4.43;;;3.95;;
40515;SDS011;26216;53.724;9.898;2023-09-18T05:17:56;3.88;;;3.47;;
40515;SDS011;26216;53.724;9.898;2023-09-18T05:20:24;4.13;;;3.72;;
40515;SDS011;26216;53.724;9.898;2023-09-18T05:22:51;4.50;;;4.10;;
40515;SDS011;26216;53.724;9.898;2023-09-18T05:25:21;4.13;;;3.72;;
40515;SDS011;26216;53.724;9.898;2023-09-18T05:27:48;4.40;;;3.95;;
40515;SDS011;26216;53.724;9.898;2023-09-18T05:30:21;4.22;;;3.83;;
40515;SDS011;26216;53.724;9.898;2023-09-18T05:32:59;5.65;;;3.70;;
40515;SDS011;26216;53.724;9.898;2023-09-18T05:35:30;4.13;;;3.25;;
40515;SDS011;26216;53.724;9.898;2023-09-18T05:38:06;4.05;;;3.65;;
40515;SDS011;26216;53.724;9.898;2023-09-18T05:40:32;4.60;;;3.63;;
40515;SDS011;26216;53.724;9.898;2023-09-18T05:42:58;4.25;;;3.85;;
40515;SDS011;26216;53.724;9.898;2023-09-18T05:45:24;4.05;;;3.65;;
40515;SDS011;26216;53.724;9.898;2023-09-18T05:47:52;3.60;;;3.28;;
40515;SDS011;26216;53.724;9.898;2023-09-18T05:50:28;4.05;;;3.65;;
40515;SDS011;26216;53.724;9.898;2023-09-18T05:52:59;5.05;;;4.18;;
40515;SDS011;26216;53.724;9.898;2023-09-18T05:55:29;4.68;;;4.10;;
40515;SDS011;26216;53.724;9.898;2023-09-18T05:57:56;4.28;;;3.88;;
40515;SDS011;26216;53.724;9.898;2023-09-18T06:00:22;5.28;;;3.83;;
40515;SDS011;26216;53.724;9.898;2023-09-18T06:02:49;4.93;;;3.83;;
40515;SDS011;26216;53.724;9.898;2023-09-18T06:05:16;4.30;;;3.83;;
40515;SDS011;26216;53.724;9.898;2023-09-18T06:07:43;4.00;;;3.22;;
40515;SDS011;26216;53.724;9.898;2023-09-18T06:10:09;3.92;;;3.53;;
40515;SDS011;26216;53.724;9.898;2023-09-18T06:12:38;4.20;;;3.40;;
40515;SDS011;26216;53.724;9.898;2023-09-18T06:15:04;4.53;;;4.13;;
40515;SDS011;26216;53.724;9.898;2023-09-18T06:17:33;4.47;;;4.03;;
40515;SDS011;26216;53.724;9.898;2023-09-18T06:19:59;3.80;;;3.40;;
40515;SDS011;26216;53.724;9.898;2023-09-18T06:22:25;4.93;;;3.75;;
40515;SDS011;26216;53.724;9.898;2023-09-18T06:24:51;4.30;;;3.80;;
40515;SDS011;26216;53.724;9.898;2023-09-18T06:27:16;4.68;;;4.22;;
40515;SDS011;26216;53.724;9.898;2023-09-18T06:29:44;4.65;;;3.88;;
40515;SDS011;26216;53.724;9.898;2023-09-18T06:32:09;4.00;;;3.60;;
40515;SDS011;26216;53.724;9.898;2023-09-18T06:34:35;4.57;;;3.80;;
40515;SDS011;26216;53.724;9.898;2023-09-18T06:37:01;4.15;;;3.58;;
40515;SDS011;26216;53.724;9.898;2023-09-18T06:39:29;4.13;;;3.72;;
40515;SDS011;26216;53.724;9.898;2023-09-18T06:41:55;3.97;;;3.58;;
40515;SDS011;26216;53.724;9.898;2023-09-18T06:44:21;4.03;;;3.50;;
40515;SDS011;26216;53.724;9.898;2023-09-18T06:46:48;4.45;;;4.00;;
40515;SDS011;26216;53.724;9.898;2023-09-18T06:49:14;4.18;;;3.70;;
40515;SDS011;26216;53.724;9.898;2023-09-18T06:51:40;4.10;;;3.70;;
40515;SDS011;26216;53.724;9.898;2023-09-18T06:54:06;4.25;;;3.83;;
40515;SDS011;26216;53.724;9.898;2023-09-18T06:56:32;3.60;;;3.30;;
40515;SDS011;26216;53.724;9.898;2023-09-18T06:58:58;4.32;;;3.78;;
40515;SDS011;26216;53.724;9.898;2023-09-18T07:01:24;4.50;;;4.10;;
40515;SDS011;26216;53.724;9.898;2023-09-18T07:03:51;4.10;;;3.58;;
40515;SDS011;26216;53.724;9.898;2023-09-18T07:06:17;5.85;;;4.13;;
40515;SDS011;26216;53.724;9.898;2023-09-18T07:08:46;3.95;;;3.45;;
40515;SDS011;26216;53.724;9.898;2023-09-18T07:11:14;4.85;;;3.70;;
40515;SDS011;26216;53.724;9.898;2023-09-18T07:13:41;4.95;;;3.95;;
40515;SDS011;26216;53.724;9.898;2023-09-18T07:16:08;4.65;;;4.15;;
40515;SDS011;26216;53.724;9.898;2023-09-18T07:18:34;4.50;;;4.10;;
40515;SDS011;26216;53.724;9.898;2023-09-18T07:21:00;4.40;;;4.00;;
40515;SDS011;26216;53.724;9.898;2023-09-18T07:23:27;4.00;;;3.50;;
40515;SDS011;26216;53.724;9.898;2023-09-18T07:25:53;4.57;;;3.92;;
40515;SDS011;26216;53.724;9.898;2023-09-18T07:28:19;3.70;;;3.35;;
40515;SDS011;26216;53.724;9.898;2023-09-18T07:30:45;4.65;;;4.20;;
40515;SDS011;26216;53.724;9.898;2023-09-18T07:33:12;3.90;;;3.42;;
40515;SDS011;26216;53.724;9.898;2023-09-18T07:35:48;4.38;;;3.63;;
40515;SDS011;26216;53.724;9.898;2023-09-18T07:38:17;3.90;;;3.50;;
40515;SDS011;26216;53.724;9.898;2023-09-18T07:40:44;3.60;;;3.08;;
40515;SDS011;26216;53.724;9.898;2023-09-18T07:43:11;4.10;;;3.70;;
40515;SDS011;26216;53.724;9.898;2023-09-18T07:45:38;4.00;;;3.60;;
40515;SDS011;26216;53.724;9.898;2023-09-18T07:48:07;3.80;;;3.40;;
40515;SDS011;26216;53.724;9.898;2023-09-18T07:50:36;3.90;;;3.50;;
40515;SDS011;26216;53.724;9.898;2023-09-18T07:53:02;3.63;;;3.25;;
40515;SDS011;26216;53.724;9.898;2023-09-18T07:55:28;3.95;;;3.55;;
40515;SDS011;26216;53.724;9.898;2023-09-18T07:57:55;4.10;;;3.47;;
40515;SDS011;26216;53.724;9.898;2023-09-18T08:00:21;5.25;;;3.70;;
40515;SDS011;26216;53.724;9.898;2023-09-18T08:02:48;3.53;;;3.22;;
40515;SDS011;26216;53.724;9.898;2023-09-18T08:05:15;3.50;;;3.20;;
40515;SDS011;26216;53.724;9.898;2023-09-18T08:07:42;3.97;;;3.58;;
40515;SDS011;26216;53.724;9.898;2023-09-18T08:10:08;3.60;;;3.20;;
40515;SDS011;26216;53.724;9.898;2023-09-18T08:12:35;3.80;;;3.35;;
40515;SDS011;26216;53.724;9.898;2023-09-18T08:15:01;3.92;;;3.58;;
40515;SDS011;26216;53.724;9.898;2023-09-18T08:17:28;3.83;;;3.47;;
40515;SDS011;26216;53.724;9.898;2023-09-18T08:19:54;3.15;;;2.85;;
40515;SDS011;26216;53.724;9.898;2023-09-18T08:22:20;3.55;;;3.25;;
40515;SDS011;26216;53.724;9.898;2023-09-18T08:24:47;3.30;;;3.00;;
40515;SDS011;26216;53.724;9.898;2023-09-18T08:27:14;3.97;;;3.25;;
40515;SDS011;26216;53.724;9.898;2023-09-18T08:29:43;3.85;;;3.40;;
40515;SDS011;26216;53.724;9.898;2023-09-18T08:32:09;3.17;;;2.85;;
40515;SDS011;26216;53.724;9.898;2023-09-18T08:34:35;3.17;;;2.88;;
40515;SDS011;26216;53.724;9.898;2023-09-18T08:37:04;3.40;;;3.10;;
40515;SDS011;26216;53.724;9.898;2023-09-18T08:39:30;3.40;;;3.10;;
40515;SDS011;26216;53.724;9.898;2023-09-18T08:41:58;6.00;;;3.50;;
40515;SDS011;26216;53.724;9.898;2023-09-18T08:44:27;3.85;;;3.42;;
40515;SDS011;26216;53.724;9.898;2023-09-18T08:46:53;3.80;;;3.40;;
40515;SDS011;26216;53.724;9.898;2023-09-18T08:49:21;3.70;;;3.30;;
40515;SDS011;26216;53.724;9.898;2023-09-18T08:51:49;3.10;;;2.80;;
40515;SDS011;26216;53.724;9.898;2023-09-18T08:54:16;8.10;;;3.10;;
40515;SDS011;26216;53.724;9.898;2023-09-18T08:56:43;3.78;;;2.97;;
40515;SDS011;26216;53.724;9.898;2023-09-18T08:59:08;4.10;;;3.40;;
40515;SDS011;26216;53.724;9.898;2023-09-18T09:01:35;3.50;;;3.20;;
40515;SDS011;26216;53.724;9.898;2023-09-18T09:04:01;3.53;;;3.20;;
40515;SDS011;26216;53.724;9.898;2023-09-18T09:06:27;4.10;;;3.17;;
40515;SDS011;26216;53.724;9.898;2023-09-18T09:08:53;3.63;;;2.88;;
40515;SDS011;26216;53.724;9.898;2023-09-18T09:11:18;3.47;;;3.00;;
40515;SDS011;26216;53.724;9.898;2023-09-18T09:13:45;3.38;;;3.00;;
40515;SDS011;26216;53.724;9.898;2023-09-18T09:16:11;3.90;;;3.13;;
40515;SDS011;26216;53.724;9.898;2023-09-18T09:18:46;3.63;;;3.20;;
40515;SDS011;26216;53.724;9.898;2023-09-18T09:21:16;3.65;;;3.30;;
40515;SDS011;26216;53.724;9.898;2023-09-18T09:23:46;3.30;;;3.00;;
40515;SDS011;26216;53.724;9.898;2023-09-18T09:26:20;3.20;;;2.90;;
40515;SDS011;26216;53.724;9.898;2023-09-18T09:28:47;3.50;;;3.00;;
40515;SDS011;26216;53.724;9.898;2023-09-18T09:31:28;3.40;;;3.10;;
40515;SDS011;26216;53.724;9.898;2023-09-18T09:33:56;3.40;;;3.10;;
40515;SDS011;26216;53.724;9.898;2023-09-18T09:36:23;3.80;;;3.42;;
40515;SDS011;26216;53.724;9.898;2023-09-18T09:38:58;3.92;;;3.33;;
40515;SDS011;26216;53.724;9.898;2023-09-18T09:41:25;3.90;;;3.40;;
40515;SDS011;26216;53.724;9.898;2023-09-18T09:43:53;4.63;;;3.22;;
40515;SDS011;26216;53.724;9.898;2023-09-18T09:46:20;4.63;;;3.20;;
40515;SDS011;26216;53.724;9.898;2023-09-18T09:51:26;3.83;;;3.42;;
40515;SDS011;26216;53.724;9.898;2023-09-18T09:53:53;3.38;;;3.03;;
40515;SDS011;26216;53.724;9.898;2023-09-18T09:56:19;3.33;;;3.03;;
40515;SDS011;26216;53.724;9.898;2023-09-18T09:59:00;4.15;;;3.60;;
40515;SDS011;26216;53.724;9.898;2023-09-18T10:01:28;3.88;;;3.28;;
40515;SDS011;26216;53.724;9.898;2023-09-18T10:03:56;3.40;;;3.10;;
40515;SDS011;26216;53.724;9.898;2023-09-18T10:06:24;3.00;;;2.70;;
40515;SDS011;26216;53.724;9.898;2023-09-18T10:08:50;3.65;;;2.95;;
40515;SDS011;26216;53.724;9.898;2023-09-18T10:11:18;4.65;;;3.05;;
40515;SDS011;26216;53.724;9.898;2023-09-18T10:13:47;2.50;;;2.30;;
40515;SDS011;26216;53.724;9.898;2023-09-18T10:16:22;4.30;;;3.20;;
40515;SDS011;26216;53.724;9.898;2023-09-18T10:18:56;3.85;;;2.60;;
40515;SDS011;26216;53.724;9.898;2023-09-18T10:24:19;3.35;;;2.53;;
40515;SDS011;26216;53.724;9.898;2023-09-18T10:26:56;3.55;;;2.88;;
40515;SDS011;26216;53.724;9.898;2023-09-18T10:29:28;3.92;;;2.30;;
40515;SDS011;26216;53.724;9.898;2023-09-18T10:31:55;3.08;;;2.78;;
40515;SDS011;26216;53.724;9.898;2023-09-18T10:34:22;4.10;;;2.63;;
40515;SDS011;26216;53.724;9.898;2023-09-18T10:36:49;2.90;;;2.30;;
40515;SDS011;26216;53.724;9.898;2023-09-18T10:39:16;4.85;;;2.40;;
40515;SDS011;26216;53.724;9.898;2023-09-18T10:41:55;3.55;;;2.85;;
40515;SDS011;26216;53.724;9.898;2023-09-18T10:44:27;3.67;;;2.40;;
40515;SDS011;26216;53.724;9.898;2023-09-18T10:46:55;3.10;;;2.15;;
40515;SDS011;26216;53.724;9.898;2023-09-18T10:49:22;6.60;;;2.67;;
40515;SDS011;26216;53.724;9.898;2023-09-18T10:51:48;3.78;;;2.85;;
40515;SDS011;26216;53.724;9.898;2023-09-18T10:54:22;3.92;;;2.50;;
40515;SDS011;26216;53.724;9.898;2023-09-18T10:56:49;2.88;;;2.30;;
40515;SDS011;26216;53.724;9.898;2023-09-18T10:59:16;4.18;;;2.70;;
40515;SDS011;26216;53.724;9.898;2023-09-18T11:01:43;3.50;;;2.58;;
40515;SDS011;26216;53.724;9.898;2023-09-18T11:04:12;3.95;;;2.33;;
40515;SDS011;26216;53.724;9.898;2023-09-18T11:09:22;3.08;;;2.20;;
40515;SDS011;26216;53.724;9.898;2023-09-18T11:14:23;2.97;;;2.40;;
40515;SDS011;26216;53.724;9.898;2023-09-18T11:20:09;3.72;;;2.42;;
40515;SDS011;26216;53.724;9.898;2023-09-18T11:22:56;4.30;;;2.70;;
40515;SDS011;26216;53.724;9.898;2023-09-18T11:25:39;3.45;;;2.63;;
40515;SDS011;26216;53.724;9.898;2023-09-18T11:28:25;3.78;;;2.58;;
40515;SDS011;26216;53.724;9.898;2023-09-18T11:33:38;3.72;;;2.05;;
40515;SDS011;26216;53.724;9.898;2023-09-18T11:36:06;3.45;;;2.85;;
40515;SDS011;26216;53.724;9.898;2023-09-18T11:41:19;4.28;;;2.38;;
40515;SDS011;26216;53.724;9.898;2023-09-18T11:44:05;3.88;;;2.40;;
40515;SDS011;26216;53.724;9.898;2023-09-18T11:46:48;4.00;;;2.55;;
40515;SDS011;26216;53.724;9.898;2023-09-18T11:49:21;3.58;;;2.60;;
40515;SDS011;26216;53.724;9.898;2023-09-18T11:51:48;4.25;;;2.85;;
40515;SDS011;26216;53.724;9.898;2023-09-18T11:54:16;3.58;;;2.88;;
40515;SDS011;26216;53.724;9.898;2023-09-18T11:56:42;4.40;;;3.10;;
40515;SDS011;26216;53.724;9.898;2023-09-18T11:59:09;5.07;;;3.15;;
40515;SDS011;26216;53.724;9.898;2023-09-18T12:01:35;6.15;;;3.05;;
40515;SDS011;26216;53.724;9.898;2023-09-18T12:04:04;5.65;;;3.28;;
40515;SDS011;26216;53.724;9.898;2023-09-18T12:06:34;5.10;;;2.63;;
40515;SDS011;26216;53.724;9.898;2023-09-18T12:09:01;3.67;;;2.72;;
40515;SDS011;26216;53.724;9.898;2023-09-18T12:11:32;5.45;;;2.95;;
40515;SDS011;26216;53.724;9.898;2023-09-18T12:13:59;5.85;;;2.90;;
40515;SDS011;26216;53.724;9.898;2023-09-18T12:16:26;3.63;;;3.00;;
40515;SDS011;26216;53.724;9.898;2023-09-18T12:18:52;4.00;;;3.35;;
40515;SDS011;26216;53.724;9.898;2023-09-18T12:21:18;5.38;;;2.90;;
40515;SDS011;26216;53.724;9.898;2023-09-18T12:23:44;4.20;;;2.80;;
40515;SDS011;26216;53.724;9.898;2023-09-18T12:26:12;5.30;;;2.50;;
40515;SDS011;26216;53.724;9.898;2023-09-18T12:28:39;3.30;;;2.70;;
40515;SDS011;26216;53.724;9.898;2023-09-18T12:31:13;3.72;;;2.38;;
40515;SDS011;26216;53.724;9.898;2023-09-18T12:33:41;3.60;;;2.08;;
40515;SDS011;26216;53.724;9.898;2023-09-18T12:36:09;2.85;;;2.10;;
40515;SDS011;26216;53.724;9.898;2023-09-18T12:38:36;3.53;;;2.10;;
40515;SDS011;26216;53.724;9.898;2023-09-18T12:41:02;3.53;;;1.92;;
40515;SDS011;26216;53.724;9.898;2023-09-18T12:43:36;3.10;;;2.40;;
40515;SDS011;26216;53.724;9.898;2023-09-18T12:46:05;4.95;;;3.38;;
40515;SDS011;26216;53.724;9.898;2023-09-18T12:48:32;5.65;;;3.30;;
40515;SDS011;26216;53.724;9.898;2023-09-18T12:51:11;5.57;;;2.75;;
40515;SDS011;26216;53.724;9.898;2023-09-18T12:53:39;4.75;;;3.10;;
40515;SDS011;26216;53.724;9.898;2023-09-18T12:56:09;4.85;;;2.67;;
40515;SDS011;26216;53.724;9.898;2023-09-18T12:58:38;5.90;;;2.88;;
40515;SDS011;26216;53.724;9.898;2023-09-18T13:01:05;3.92;;;2.70;;
40515;SDS011;26216;53.724;9.898;2023-09-18T13:03:40;5.45;;;2.28;;
40515;SDS011;26216;53.724;9.898;2023-09-18T13:06:12;3.28;;;2.00;;
40515;SDS011;26216;53.724;9.898;2023-09-18T13:08:45;3.97;;;2.08;;
40515;SDS011;26216;53.724;9.898;2023-09-18T13:11:12;3.75;;;1.70;;
40515;SDS011;26216;53.724;9.898;2023-09-18T13:13:41;5.25;;;2.10;;
40515;SDS011;26216;53.724;9.898;2023-09-18T13:16:09;3.70;;;2.10;;
40515;SDS011;26216;53.724;9.898;2023-09-18T13:18:35;3.25;;;1.80;;
40515;SDS011;26216;53.724;9.898;2023-09-18T13:21:09;3.03;;;1.90;;
40515;SDS011;26216;53.724;9.898;2023-09-18T13:23:39;2.08;;;1.45;;
40515;SDS011;26216;53.724;9.898;2023-09-18T13:26:05;2.88;;;1.67;;
40515;SDS011;26216;53.724;9.898;2023-09-18T13:28:35;4.20;;;1.97;;
40515;SDS011;26216;53.724;9.898;2023-09-18T13:31:02;2.80;;;1.77;;
40515;SDS011;26216;53.724;9.898;2023-09-18T13:33:33;3.45;;;1.50;;
40515;SDS011;26216;53.724;9.898;2023-09-18T13:36:04;2.65;;;1.30;;
40515;SDS011;26216;53.724;9.898;2023-09-18T13:38:31;2.35;;;1.73;;
40515;SDS011;26216;53.724;9.898;2023-09-18T13:40:57;3.08;;;1.48;;
40515;SDS011;26216;53.724;9.898;2023-09-18T13:43:23;2.92;;;1.13;;
40515;SDS011;26216;53.724;9.898;2023-09-18T13:45:49;2.35;;;1.15;;
40515;SDS011;26216;53.724;9.898;2023-09-18T13:48:19;3.33;;;1.73;;
40515;SDS011;26216;53.724;9.898;2023-09-18T13:50:45;3.17;;;1.75;;
40515;SDS011;26216;53.724;9.898;2023-09-18T13:53:12;2.58;;;1.58;;
40515;SDS011;26216;53.724;9.898;2023-09-18T13:55:39;2.13;;;1.27;;
40515;SDS011;26216;53.724;9.898;2023-09-18T13:58:05;3.65;;;1.60;;
40515;SDS011;26216;53.724;9.898;2023-09-18T14:00:31;2.90;;;1.55;;
40515;SDS011;26216;53.724;9.898;2023-09-18T14:02:58;3.92;;;1.52;;
40515;SDS011;26216;53.724;9.898;2023-09-18T14:05:25;3.75;;;1.40;;
40515;SDS011;26216;53.724;9.898;2023-09-18T14:07:52;3.05;;;1.73;;
40515;SDS011;26216;53.724;9.898;2023-09-18T14:10:22;2.93;;;1.57;;
40515;SDS011;26216;53.724;9.898;2023-09-18T14:12:48;2.50;;;1.38;;
40515;SDS011;26216;53.724;9.898;2023-09-18T14:15:15;3.88;;;1.60;;
40515;SDS011;26216;53.724;9.898;2023-09-18T14:17:41;3.15;;;1.52;;
40515;SDS011;26216;53.724;9.898;2023-09-18T14:20:07;2.88;;;1.60;;
40515;SDS011;26216;53.724;9.898;2023-09-18T14:22:34;2.75;;;1.58;;
40515;SDS011;26216;53.724;9.898;2023-09-18T14:25:00;2.22;;;1.30;;
40515;SDS011;26216;53.724;9.898;2023-09-18T14:27:34;3.88;;;1.45;;
40515;SDS011;26216;53.724;9.898;2023-09-18T14:30:00;3.45;;;1.45;;
40515;SDS011;26216;53.724;9.898;2023-09-18T14:32:31;2.25;;;1.40;;
40515;SDS011;26216;53.724;9.898;2023-09-18T14:34:57;3.47;;;1.60;;
40515;SDS011;26216;53.724;9.898;2023-09-18T14:37:26;3.22;;;1.70;;
40515;SDS011;26216;53.724;9.898;2023-09-18T14:39:52;3.00;;;1.60;;
40515;SDS011;26216;53.724;9.898;2023-09-18T14:42:18;2.00;;;1.45;;
40515;SDS011;26216;53.724;9.898;2023-09-18T14:44:44;3.00;;;1.48;;
40515;SDS011;26216;53.724;9.898;2023-09-18T14:47:11;2.60;;;1.60;;
40515;SDS011;26216;53.724;9.898;2023-09-18T14:49:37;3.45;;;1.48;;
40515;SDS011;26216;53.724;9.898;2023-09-18T14:52:04;2.75;;;1.50;;
40515;SDS011;26216;53.724;9.898;2023-09-18T14:54:30;2.35;;;1.40;;
40515;SDS011;26216;53.724;9.898;2023-09-18T14:57:02;3.90;;;1.63;;
40515;SDS011;26216;53.724;9.898;2023-09-18T14:59:28;3.50;;;1.50;;
40515;SDS011;26216;53.724;9.898;2023-09-18T15:01:54;4.00;;;1.42;;
40515;SDS011;26216;53.724;9.898;2023-09-18T15:04:20;2.53;;;1.35;;
40515;SDS011;26216;53.724;9.898;2023-09-18T15:06:47;3.33;;;1.33;;
40515;SDS011;26216;53.724;9.898;2023-09-18T15:09:14;3.22;;;1.17;;
40515;SDS011;26216;53.724;9.898;2023-09-18T15:11:40;2.60;;;1.40;;
40515;SDS011;26216;53.724;9.898;2023-09-18T15:14:06;2.08;;;1.30;;
40515;SDS011;26216;53.724;9.898;2023-09-18T15:16:35;2.58;;;1.35;;